sensor_id;sensor_type;location;lat;lon;timestamp;pressure;altitude;pressure_sealevel;temperature;humidity
53868;BME280;41577;47.470;19.080;2023-04-10T00:00:05;100922.53;;;5.77;100.00
53868;BME280;41577;47.470;19.080;2023-04-10T00:00:20;100917.25;;;5.77;100.00
53868;BME280;41577;47.470;19.080;2023-04-10T00:00:33;100921.69;;;5.77;100.00
53868;BME280;41577;47.470;19.080;2023-04-10T00:00:46;100919.19;;;5.75;100.00
53868;BME280;41577;47.470;19.080;2023-04-10T00:00:59;100919.19;;;5.75;100.00
53868;BME280;41577;47.470;19.080;2023-04-10T00:01:12;100916.56;;;5.75;100.00
53868;BME280;41577;47.470;19.080;2023-04-10T00:01:24;100920.84;;;5.76;100.00
53868;BME280;41577;47.470;19.080;2023-04-10T00:01:37;100920.03;;;5.76;100.00
53868;BME280;41577;47.470;19.080;2023-04-10T00:01:50;100923.66;;;5.75;100.00
53868;BME280;41577;47.470;19.080;2023-04-10T00:02:04;100915.72;;;5.75;100.00
53868;BME280;41577;47.470;19.080;2023-04-10T00:02:17;100918.38;;;5.75;100.00
53868;BME280;41577;47.470;19.080;2023-04-10T00:02:30;100917.69;;;5.73;100.00
53868;BME280;41577;47.470;19.080;2023-04-10T00:02:43;100910.69;;;5.72;100.00
53868;BME280;41577;47.470;19.080;2023-04-10T00:02:57;100920.16;;;5.74;100.00
53868;BME280;41577;47.470;19.080;2023-04-10T00:03:11;100915.84;;;5.73;100.00
53868;BME280;41577;47.470;19.080;2023-04-10T00:03:25;100919.34;;;5.74;100.00
53868;BME280;41577;47.470;19.080;2023-04-10T00:03:38;100919.63;;;5.71;100.00
53868;BME280;41577;47.470;19.080;2023-04-10T00:03:51;100920.31;;;5.73;100.00
53868;BME280;41577;47.470;19.080;2023-04-10T00:04:05;100916.13;;;5.70;100.00
53868;BME280;41577;47.470;19.080;2023-04-10T00:04:18;100921.28;;;5.72;100.00
53868;BME280;41577;47.470;19.080;2023-04-10T00:04:31;100914.31;;;5.71;100.00
53868;BME280;41577;47.470;19.080;2023-04-10T00:04:44;100912.63;;;5.70;100.00
53868;BME280;41577;47.470;19.080;2023-04-10T00:04:57;100919.63;;;5.71;100.00
53868;BME280;41577;47.470;19.080;2023-04-10T00:05:10;100914.31;;;5.71;100.00
53868;BME280;41577;47.470;19.080;2023-04-10T00:05:22;100910.16;;;5.68;100.00
53868;BME280;41577;47.470;19.080;2023-04-10T00:05:35;100916.28;;;5.69;100.00
53868;BME280;41577;47.470;19.080;2023-04-10T00:05:48;100918.09;;;5.68;100.00
53868;BME280;41577;47.470;19.080;2023-04-10T00:06:00;100921.56;;;5.69;100.00
53868;BME280;41577;47.470;19.080;2023-04-10T00:06:13;100917.25;;;5.68;100.00
53868;BME280;41577;47.470;19.080;2023-04-10T00:06:26;100910.97;;;5.69;100.00
53868;BME280;41577;47.470;19.080;2023-04-10T00:06:43;100916.41;;;5.67;100.00
53868;BME280;41577;47.470;19.080;2023-04-10T00:06:56;100919.06;;;5.67;100.00
53868;BME280;41577;47.470;19.080;2023-04-10T00:07:08;100913.75;;;5.67;100.00
53868;BME280;41577;47.470;19.080;2023-04-10T00:07:21;100917.41;;;5.66;100.00
53868;BME280;41577;47.470;19.080;2023-04-10T00:07:35;100914.88;;;5.64;100.00
53868;BME280;41577;47.470;19.080;2023-04-10T00:07:47;100914.75;;;5.66;100.00
53868;BME280;41577;47.470;19.080;2023-04-10T00:08:00;100915.72;;;5.65;100.00
53868;BME280;41577;47.470;19.080;2023-04-10T00:08:17;100911.25;;;5.65;100.00
53868;BME280;41577;47.470;19.080;2023-04-10T00:08:29;100913.88;;;5.65;100.00
53868;BME280;41577;47.470;19.080;2023-04-10T00:08:43;100914.88;;;5.64;100.00
53868;BME280;41577;47.470;19.080;2023-04-10T00:08:55;100914.88;;;5.64;100.00
53868;BME280;41577;47.470;19.080;2023-04-10T00:09:10;100914.19;;;5.62;100.00
53868;BME280;41577;47.470;19.080;2023-04-10T00:09:23;100910.56;;;5.63;100.00
53868;BME280;41577;47.470;19.080;2023-04-10T00:09:36;100908.88;;;5.62;100.00
53868;BME280;41577;47.470;19.080;2023-04-10T00:09:50;100908.75;;;5.64;100.00
53868;BME280;41577;47.470;19.080;2023-04-10T00:10:04;100915.00;;;5.63;100.00
53868;BME280;41577;47.470;19.080;2023-04-10T00:10:18;100903.88;;;5.59;100.00
53868;BME280;41577;47.470;19.080;2023-04-10T00:10:39;100911.66;;;5.61;100.00
53868;BME280;41577;47.470;19.080;2023-04-10T00:11:04;100909.88;;;5.61;100.00
53868;BME280;41577;47.470;19.080;2023-04-10T00:11:23;100908.19;;;5.60;100.00
53868;BME280;41577;47.470;19.080;2023-04-10T00:11:41;100911.66;;;5.61;100.00
53868;BME280;41577;47.470;19.080;2023-04-10T00:12:09;100907.50;;;5.58;100.00
53868;BME280;41577;47.470;19.080;2023-04-10T00:12:34;100903.19;;;5.57;100.00
53868;BME280;41577;47.470;19.080;2023-04-10T00:12:51;100904.13;;;5.56;100.00
53868;BME280;41577;47.470;19.080;2023-04-10T00:13:04;100902.78;;;5.52;100.00
53868;BME280;41577;47.470;19.080;2023-04-10T00:13:17;100907.91;;;5.54;100.00
53868;BME280;41577;47.470;19.080;2023-04-10T00:13:34;100897.59;;;5.51;100.00
53868;BME280;41577;47.470;19.080;2023-04-10T00:13:49;100902.59;;;5.54;100.00
53868;BME280;41577;47.470;19.080;2023-04-10T00:14:02;100909.84;;;5.52;100.00
53868;BME280;41577;47.470;19.080;2023-04-10T00:14:18;100897.59;;;5.51;100.00
53868;BME280;41577;47.470;19.080;2023-04-10T00:14:30;100904.56;;;5.52;100.00
53868;BME280;41577;47.470;19.080;2023-04-10T00:14:45;100904.72;;;5.50;100.00
53868;BME280;41577;47.470;19.080;2023-04-10T00:14:58;100899.41;;;5.50;100.00
53868;BME280;41577;47.470;19.080;2023-04-10T00:15:12;100909.03;;;5.51;100.00
53868;BME280;41577;47.470;19.080;2023-04-10T00:15:25;100904.03;;;5.48;100.00
53868;BME280;41577;47.470;19.080;2023-04-10T00:15:37;100902.22;;;5.49;100.00
53868;BME280;41577;47.470;19.080;2023-04-10T00:15:51;100908.50;;;5.48;100.00
53868;BME280;41577;47.470;19.080;2023-04-10T00:16:05;100901.50;;;5.47;100.00
53868;BME280;41577;47.470;19.080;2023-04-10T00:16:18;100903.19;;;5.48;100.00
53868;BME280;41577;47.470;19.080;2023-04-10T00:16:31;100898.03;;;5.46;100.00
53868;BME280;41577;47.470;19.080;2023-04-10T00:16:44;100900.81;;;5.44;100.00
53868;BME280;41577;47.470;19.080;2023-04-10T00:16:57;100900.81;;;5.44;100.00
53868;BME280;41577;47.470;19.080;2023-04-10T00:17:10;100904.28;;;5.45;100.00
53868;BME280;41577;47.470;19.080;2023-04-10T00:17:22;100900.81;;;5.44;100.00
53868;BME280;41577;47.470;19.080;2023-04-10T00:17:34;100899.16;;;5.43;100.00
53868;BME280;41577;47.470;19.080;2023-04-10T00:17:47;100894.97;;;5.41;100.00
53868;BME280;41577;47.470;19.080;2023-04-10T00:18:02;100901.78;;;5.43;100.00
53868;BME280;41577;47.470;19.080;2023-04-10T00:18:15;100898.31;;;5.43;100.00
53868;BME280;41577;47.470;19.080;2023-04-10T00:18:29;100901.94;;;5.42;100.00
53868;BME280;41577;47.470;19.080;2023-04-10T00:18:43;100899.28;;;5.42;100.00
53868;BME280;41577;47.470;19.080;2023-04-10T00:18:57;100899.41;;;5.40;100.00
53868;BME280;41577;47.470;19.080;2023-04-10T00:19:10;100900.25;;;5.41;100.00
53868;BME280;41577;47.470;19.080;2023-04-10T00:19:22;100899.41;;;5.40;100.00
53868;BME280;41577;47.470;19.080;2023-04-10T00:19:35;100902.06;;;5.40;100.00
53868;BME280;41577;47.470;19.080;2023-04-10T00:19:47;100896.22;;;5.37;100.00
53868;BME280;41577;47.470;19.080;2023-04-10T00:20:00;100896.22;;;5.37;100.00
53868;BME280;41577;47.470;19.080;2023-04-10T00:20:12;100897.88;;;5.38;100.00
53868;BME280;41577;47.470;19.080;2023-04-10T00:20:25;100899.69;;;5.37;100.00
53868;BME280;41577;47.470;19.080;2023-04-10T00:20:37;100899.00;;;5.35;100.00
53868;BME280;41577;47.470;19.080;2023-04-10T00:20:50;100889.41;;;5.34;100.00
53868;BME280;41577;47.470;19.080;2023-04-10T00:21:03;100899.81;;;5.36;100.00
53868;BME280;41577;47.470;19.080;2023-04-10T00:21:15;100895.38;;;5.36;100.00
53868;BME280;41577;47.470;19.080;2023-04-10T00:21:29;100899.16;;;5.34;100.00
53868;BME280;41577;47.470;19.080;2023-04-10T00:21:43;100899.81;;;5.36;100.00
53868;BME280;41577;47.470;19.080;2023-04-10T00:21:57;100894.00;;;5.32;100.00
53868;BME280;41577;47.470;19.080;2023-04-10T00:22:10;100896.34;;;5.35;100.00
53868;BME280;41577;47.470;19.080;2023-04-10T00:22:23;100893.84;;;5.34;100.00
53868;BME280;41577;47.470;19.080;2023-04-10T00:22:36;100894.00;;;5.32;100.00
53868;BME280;41577;47.470;19.080;2023-04-10T00:22:50;100897.47;;;5.33;100.00
53868;BME280;41577;47.470;19.080;2023-04-10T00:23:03;100896.75;;;5.31;100.00
53868;BME280;41577;47.470;19.080;2023-04-10T00:23:15;100889.94;;;5.28;100.00
53868;BME280;41577;47.470;19.080;2023-04-10T00:23:28;100901.94;;;5.32;100.00
53868;BME280;41577;47.470;19.080;2023-04-10T00:23:41;100894.94;;;5.31;100.00
53868;BME280;41577;47.470;19.080;2023-04-10T00:23:53;100896.75;;;5.31;100.00
53868;BME280;41577;47.470;19.080;2023-04-10T00:24:07;100893.28;;;5.30;100.00
53868;BME280;41577;47.470;19.080;2023-04-10T00:24:21;100893.28;;;5.30;100.00
53868;BME280;41577;47.470;19.080;2023-04-10T00:24:35;100893.41;;;5.29;100.00
53868;BME280;41577;47.470;19.080;2023-04-10T00:24:48;100895.94;;;5.30;100.00
53868;BME280;41577;47.470;19.080;2023-04-10T00:25:02;100893.41;;;5.29;100.00
53868;BME280;41577;47.470;19.080;2023-04-10T00:25:15;100896.06;;;5.29;100.00
53868;BME280;41577;47.470;19.080;2023-04-10T00:25:27;100893.41;;;5.29;100.00
53868;BME280;41577;47.470;19.080;2023-04-10T00:25:39;100894.28;;;5.29;100.00
53868;BME280;41577;47.470;19.080;2023-04-10T00:25:52;100897.88;;;5.28;100.00
53868;BME280;41577;47.470;19.080;2023-04-10T00:26:05;100897.06;;;5.28;100.00
53868;BME280;41577;47.470;19.080;2023-04-10T00:26:17;100897.06;;;5.28;100.00
53868;BME280;41577;47.470;19.080;2023-04-10T00:26:30;100893.72;;;5.26;100.00
53868;BME280;41577;47.470;19.080;2023-04-10T00:26:44;100891.75;;;5.28;100.00
53868;BME280;41577;47.470;19.080;2023-04-10T00:26:57;100892.72;;;5.27;100.00
53868;BME280;41577;47.470;19.080;2023-04-10T00:27:10;100892.72;;;5.27;100.00
53868;BME280;41577;47.470;19.080;2023-04-10T00:27:22;100891.06;;;5.26;100.00
53868;BME280;41577;47.470;19.080;2023-04-10T00:27:39;100898.00;;;5.27;100.00
53868;BME280;41577;47.470;19.080;2023-04-10T00:27:52;100894.53;;;5.26;100.00
53868;BME280;41577;47.470;19.080;2023-04-10T00:28:05;100898.19;;;5.25;100.00
53868;BME280;41577;47.470;19.080;2023-04-10T00:28:17;100895.66;;;5.23;100.00
53868;BME280;41577;47.470;19.080;2023-04-10T00:28:30;100894.00;;;5.22;100.00
53868;BME280;41577;47.470;19.080;2023-04-10T00:28:43;100893.00;;;5.23;100.00
53868;BME280;41577;47.470;19.080;2023-04-10T00:28:58;100893.13;;;5.22;100.00
53868;BME280;41577;47.470;19.080;2023-04-10T00:29:10;100895.94;;;5.20;100.00
53868;BME280;41577;47.470;19.080;2023-04-10T00:29:22;100901.09;;;5.22;100.00
53868;BME280;41577;47.470;19.080;2023-04-10T00:29:35;100899.28;;;5.22;100.00
53868;BME280;41577;47.470;19.080;2023-04-10T00:29:48;100895.94;;;5.20;100.00
53868;BME280;41577;47.470;19.080;2023-04-10T00:30:00;100900.25;;;5.21;100.00
53868;BME280;41577;47.470;19.080;2023-04-10T00:30:15;100885.63;;;5.17;100.00
53868;BME280;41577;47.470;19.080;2023-04-10T00:30:27;100901.38;;;5.19;100.00
53868;BME280;41577;47.470;19.080;2023-04-10T00:30:40;100896.06;;;5.19;100.00
53868;BME280;41577;47.470;19.080;2023-04-10T00:30:52;100897.88;;;5.18;100.00
53868;BME280;41577;47.470;19.080;2023-04-10T00:31:05;100898.03;;;5.17;100.00
53868;BME280;41577;47.470;19.080;2023-04-10T00:31:21;100895.38;;;5.17;100.00
53868;BME280;41577;47.470;19.080;2023-04-10T00:31:34;100892.03;;;5.15;100.00
53868;BME280;41577;47.470;19.080;2023-04-10T00:31:47;100886.19;;;5.11;100.00
53868;BME280;41577;47.470;19.080;2023-04-10T00:32:00;100897.31;;;5.15;100.00
53868;BME280;41577;47.470;19.080;2023-04-10T00:32:13;100889.53;;;5.13;100.00
53868;BME280;41577;47.470;19.080;2023-04-10T00:32:26;100891.19;;;5.14;100.00
53868;BME280;41577;47.470;19.080;2023-04-10T00:32:39;100892.84;;;5.15;100.00
53868;BME280;41577;47.470;19.080;2023-04-10T00:32:51;100895.66;;;5.14;100.00
53868;BME280;41577;47.470;19.080;2023-04-10T00:33:04;100887.84;;;5.12;100.00
53868;BME280;41577;47.470;19.080;2023-04-10T00:33:18;100893.13;;;5.12;100.00
53868;BME280;41577;47.470;19.080;2023-04-10T00:33:30;100894.97;;;5.12;100.00
53868;BME280;41577;47.470;19.080;2023-04-10T00:33:48;100894.84;;;5.13;100.00
53868;BME280;41577;47.470;19.080;2023-04-10T00:34:02;100893.97;;;5.13;100.00
53868;BME280;41577;47.470;19.080;2023-04-10T00:34:15;100897.47;;;5.13;100.00
53868;BME280;41577;47.470;19.080;2023-04-10T00:34:29;100895.09;;;5.10;100.00
53868;BME280;41577;47.470;19.080;2023-04-10T00:34:41;100899.25;;;5.13;100.00
53868;BME280;41577;47.470;19.080;2023-04-10T00:34:54;100894.97;;;5.12;100.00
53868;BME280;41577;47.470;19.080;2023-04-10T00:35:07;100895.78;;;5.12;100.00
53868;BME280;41577;47.470;19.080;2023-04-10T00:35:20;100892.31;;;5.12;100.00
53868;BME280;41577;47.470;19.080;2023-04-10T00:35:34;100895.78;;;5.12;100.00
53868;BME280;41577;47.470;19.080;2023-04-10T00:35:47;100894.13;;;5.11;100.00
53868;BME280;41577;47.470;19.080;2023-04-10T00:36:02;100888.84;;;5.11;100.00
53868;BME280;41577;47.470;19.080;2023-04-10T00:36:16;100892.31;;;5.12;100.00
53868;BME280;41577;47.470;19.080;2023-04-10T00:36:31;100890.78;;;5.09;100.00
53868;BME280;41577;47.470;19.080;2023-04-10T00:36:47;100895.09;;;5.10;100.00
53868;BME280;41577;47.470;19.080;2023-04-10T00:37:00;100889.78;;;5.10;100.00
53868;BME280;41577;47.470;19.080;2023-04-10T00:37:15;100896.06;;;5.09;100.00
53868;BME280;41577;47.470;19.080;2023-04-10T00:37:27;100891.59;;;5.10;100.00
53868;BME280;41577;47.470;19.080;2023-04-10T00:37:40;100888.97;;;5.10;100.00
53868;BME280;41577;47.470;19.080;2023-04-10T00:37:52;100890.78;;;5.09;100.00
53868;BME280;41577;47.470;19.080;2023-04-10T00:38:06;100896.06;;;5.09;100.00
53868;BME280;41577;47.470;19.080;2023-04-10T00:38:19;100888.25;;;5.08;100.00
53868;BME280;41577;47.470;19.080;2023-04-10T00:38:32;100888.25;;;5.08;100.00
53868;BME280;41577;47.470;19.080;2023-04-10T00:38:45;100893.69;;;5.06;100.00
53868;BME280;41577;47.470;19.080;2023-04-10T00:38:57;100891.03;;;5.06;100.00
53868;BME280;41577;47.470;19.080;2023-04-10T00:39:12;100898.72;;;5.09;100.00
53868;BME280;41577;47.470;19.080;2023-04-10T00:39:25;100887.31;;;5.09;100.00
53868;BME280;41577;47.470;19.080;2023-04-10T00:39:38;100896.06;;;5.09;100.00
53868;BME280;41577;47.470;19.080;2023-04-10T00:39:51;100886.59;;;5.07;100.00
53868;BME280;41577;47.470;19.080;2023-04-10T00:40:07;100892.72;;;5.07;100.00
53868;BME280;41577;47.470;19.080;2023-04-10T00:40:22;100892.72;;;5.07;100.00
53868;BME280;41577;47.470;19.080;2023-04-10T00:40:35;100891.91;;;5.07;100.00
53868;BME280;41577;47.470;19.080;2023-04-10T00:40:48;100891.03;;;5.06;100.00
53868;BME280;41577;47.470;19.080;2023-04-10T00:41:01;100889.25;;;5.07;100.00
53868;BME280;41577;47.470;19.080;2023-04-10T00:41:13;100883.38;;;5.03;100.00
53868;BME280;41577;47.470;19.080;2023-04-10T00:41:26;100885.75;;;5.06;100.00
53868;BME280;41577;47.470;19.080;2023-04-10T00:41:38;100888.53;;;5.05;100.00
53868;BME280;41577;47.470;19.080;2023-04-10T00:41:52;100883.38;;;5.03;100.00
53868;BME280;41577;47.470;19.080;2023-04-10T00:42:04;100893.69;;;5.06;100.00
53868;BME280;41577;47.470;19.080;2023-04-10T00:42:17;100887.44;;;5.07;100.00
53868;BME280;41577;47.470;19.080;2023-04-10T00:42:30;100892.72;;;5.07;100.00
53868;BME280;41577;47.470;19.080;2023-04-10T00:42:44;100894.53;;;5.07;100.00
53868;BME280;41577;47.470;19.080;2023-04-10T00:42:57;100887.72;;;5.04;100.00
53868;BME280;41577;47.470;19.080;2023-04-10T00:43:11;100890.06;;;5.07;100.00
53868;BME280;41577;47.470;19.080;2023-04-10T00:43:34;100889.25;;;5.07;100.00
53868;BME280;41577;47.470;19.080;2023-04-10T00:43:46;100891.03;;;5.06;100.00
53868;BME280;41577;47.470;19.080;2023-04-10T00:43:59;100887.56;;;5.06;100.00
53868;BME280;41577;47.470;19.080;2023-04-10T00:44:12;100878.22;;;5.01;100.00
53868;BME280;41577;47.470;19.080;2023-04-10T00:44:24;100892.72;;;5.07;100.00
53868;BME280;41577;47.470;19.080;2023-04-10T00:44:38;100890.22;;;5.06;100.00
53868;BME280;41577;47.470;19.080;2023-04-10T00:44:54;100890.22;;;5.06;100.00
53868;BME280;41577;47.470;19.080;2023-04-10T00:45:07;100883.09;;;5.06;100.00
53868;BME280;41577;47.470;19.080;2023-04-10T00:45:19;100888.38;;;5.06;100.00
53868;BME280;41577;47.470;19.080;2023-04-10T00:45:32;100884.91;;;5.06;100.00
53868;BME280;41577;47.470;19.080;2023-04-10T00:45:45;100884.91;;;5.06;100.00
53868;BME280;41577;47.470;19.080;2023-04-10T00:46:00;100884.09;;;5.05;100.00
53868;BME280;41577;47.470;19.080;2023-04-10T00:46:14;100880.72;;;5.03;100.00
53868;BME280;41577;47.470;19.080;2023-04-10T00:46:27;100884.78;;;5.07;100.00
53868;BME280;41577;47.470;19.080;2023-04-10T00:46:41;100886.72;;;5.05;100.00
53868;BME280;41577;47.470;19.080;2023-04-10T00:46:53;100882.13;;;5.07;100.00
53868;BME280;41577;47.470;19.080;2023-04-10T00:47:06;100888.25;;;5.08;100.00
53868;BME280;41577;47.470;19.080;2023-04-10T00:47:19;100882.25;;;5.06;100.00
53868;BME280;41577;47.470;19.080;2023-04-10T00:47:33;100884.09;;;5.05;100.00
53868;BME280;41577;47.470;19.080;2023-04-10T00:47:46;100882.13;;;5.07;100.00
53868;BME280;41577;47.470;19.080;2023-04-10T00:48:03;100883.94;;;5.07;100.00
53868;BME280;41577;47.470;19.080;2023-04-10T00:48:46;100879.50;;;5.07;100.00
53868;BME280;41577;47.470;19.080;2023-04-10T00:49:04;100876.97;;;5.06;100.00
53868;BME280;41577;47.470;19.080;2023-04-10T00:49:19;100883.09;;;5.06;100.00
53868;BME280;41577;47.470;19.080;2023-04-10T00:49:32;100881.44;;;5.05;100.00
53868;BME280;41577;47.470;19.080;2023-04-10T00:49:46;100877.81;;;5.06;100.00
53868;BME280;41577;47.470;19.080;2023-04-10T00:49:59;100882.13;;;5.07;100.00
53868;BME280;41577;47.470;19.080;2023-04-10T00:50:14;100881.44;;;5.05;100.00
53868;BME280;41577;47.470;19.080;2023-04-10T00:50:28;100881.16;;;5.08;100.00
53868;BME280;41577;47.470;19.080;2023-04-10T00:50:45;100876.13;;;5.05;100.00
53868;BME280;41577;47.470;19.080;2023-04-10T00:50:58;100880.59;;;5.05;100.00
53868;BME280;41577;47.470;19.080;2023-04-10T00:51:11;100879.38;;;5.09;100.00
53868;BME280;41577;47.470;19.080;2023-04-10T00:51:23;100879.50;;;5.07;100.00
53868;BME280;41577;47.470;19.080;2023-04-10T00:51:36;100878.78;;;5.05;100.00
53868;BME280;41577;47.470;19.080;2023-04-10T00:51:53;100888.13;;;5.09;100.00
53868;BME280;41577;47.470;19.080;2023-04-10T00:52:09;100888.13;;;5.09;100.00
53868;BME280;41577;47.470;19.080;2023-04-10T00:52:23;100879.38;;;5.09;100.00
53868;BME280;41577;47.470;19.080;2023-04-10T00:52:39;100878.50;;;5.08;100.00
53868;BME280;41577;47.470;19.080;2023-04-10T00:52:52;100881.16;;;5.08;100.00
53868;BME280;41577;47.470;19.080;2023-04-10T00:53:07;100882.84;;;5.09;100.00
53868;BME280;41577;47.470;19.080;2023-04-10T00:53:20;100877.66;;;5.08;100.00
53868;BME280;41577;47.470;19.080;2023-04-10T00:53:33;100881.16;;;5.08;100.00
53868;BME280;41577;47.470;19.080;2023-04-10T00:53:47;100885.50;;;5.09;100.00
53868;BME280;41577;47.470;19.080;2023-04-10T00:54:00;100883.78;;;5.08;100.00
53868;BME280;41577;47.470;19.080;2023-04-10T00:54:13;100882.13;;;5.07;100.00
53868;BME280;41577;47.470;19.080;2023-04-10T00:54:28;100882.97;;;5.08;100.00
53868;BME280;41577;47.470;19.080;2023-04-10T00:54:42;100881.31;;;5.07;100.00
53868;BME280;41577;47.470;19.080;2023-04-10T00:54:56;100883.78;;;5.08;100.00
53868;BME280;41577;47.470;19.080;2023-04-10T00:55:08;100882.97;;;5.08;100.00
53868;BME280;41577;47.470;19.080;2023-04-10T00:55:22;100868.50;;;5.02;100.00
53868;BME280;41577;47.470;19.080;2023-04-10T00:55:34;100882.97;;;5.08;100.00
53868;BME280;41577;47.470;19.080;2023-04-10T00:55:48;100876.28;;;5.03;100.00
53868;BME280;41577;47.470;19.080;2023-04-10T00:56:01;100882.13;;;5.07;100.00
53868;BME280;41577;47.470;19.080;2023-04-10T00:56:13;100880.31;;;5.08;100.00
53868;BME280;41577;47.470;19.080;2023-04-10T00:56:26;100871.84;;;5.04;100.00
53868;BME280;41577;47.470;19.080;2023-04-10T00:56:39;100884.66;;;5.09;100.00
53868;BME280;41577;47.470;19.080;2023-04-10T00:56:56;100887.31;;;5.09;100.00
53868;BME280;41577;47.470;19.080;2023-04-10T00:57:11;100876.84;;;5.07;100.00
53868;BME280;41577;47.470;19.080;2023-04-10T00:57:24;100878.50;;;5.08;100.00
53868;BME280;41577;47.470;19.080;2023-04-10T00:57:38;100878.66;;;5.07;100.00
53868;BME280;41577;47.470;19.080;2023-04-10T00:57:54;100878.50;;;5.08;100.00
53868;BME280;41577;47.470;19.080;2023-04-10T00:58:08;100881.84;;;5.10;100.00
53868;BME280;41577;47.470;19.080;2023-04-10T00:58:21;100873.06;;;5.10;100.00
53868;BME280;41577;47.470;19.080;2023-04-10T00:58:33;100873.06;;;5.10;100.00
53868;BME280;41577;47.470;19.080;2023-04-10T00:58:48;100873.91;;;5.10;100.00
53868;BME280;41577;47.470;19.080;2023-04-10T00:59:03;100879.19;;;5.10;100.00
53868;BME280;41577;47.470;19.080;2023-04-10T00:59:18;100873.91;;;5.10;100.00
53868;BME280;41577;47.470;19.080;2023-04-10T00:59:31;100881.03;;;5.10;100.00
53868;BME280;41577;47.470;19.080;2023-04-10T00:59:44;100881.84;;;5.10;100.00
53868;BME280;41577;47.470;19.080;2023-04-10T00:59:57;100865.44;;;5.07;100.00
53868;BME280;41577;47.470;19.080;2023-04-10T01:00:11;100883.38;;;5.13;100.00
53868;BME280;41577;47.470;19.080;2023-04-10T01:00:24;100873.78;;;5.12;100.00
53868;BME280;41577;47.470;19.080;2023-04-10T01:00:37;100875.59;;;5.11;100.00
53868;BME280;41577;47.470;19.080;2023-04-10T01:00:50;100884.38;;;5.12;100.00
53868;BME280;41577;47.470;19.080;2023-04-10T01:01:06;100879.91;;;5.12;100.00
53868;BME280;41577;47.470;19.080;2023-04-10T01:01:19;100890.19;;;5.15;100.00
53868;BME280;41577;47.470;19.080;2023-04-10T01:01:31;100883.38;;;5.13;100.00
53868;BME280;41577;47.470;19.080;2023-04-10T01:01:44;100879.19;;;5.10;100.00
53868;BME280;41577;47.470;19.080;2023-04-10T01:01:57;100876.31;;;5.13;100.00
53868;BME280;41577;47.470;19.080;2023-04-10T01:02:10;100867.78;;;5.10;100.00
53868;BME280;41577;47.470;19.080;2023-04-10T01:02:23;100878.09;;;5.13;100.00
53868;BME280;41577;47.470;19.080;2023-04-10T01:02:39;100878.94;;;5.13;100.00
53868;BME280;41577;47.470;19.080;2023-04-10T01:02:54;100881.59;;;5.13;100.00
53868;BME280;41577;47.470;19.080;2023-04-10T01:03:08;100888.69;;;5.13;100.00
53868;BME280;41577;47.470;19.080;2023-04-10T01:03:22;100881.59;;;5.13;100.00
53868;BME280;41577;47.470;19.080;2023-04-10T01:03:40;100890.38;;;5.14;100.00
53868;BME280;41577;47.470;19.080;2023-04-10T01:03:53;100878.94;;;5.13;100.00
53868;BME280;41577;47.470;19.080;2023-04-10T01:04:11;100881.84;;;5.10;100.00
53868;BME280;41577;47.470;19.080;2023-04-10T01:04:25;100881.59;;;5.13;100.00
53868;BME280;41577;47.470;19.080;2023-04-10T01:04:39;100880.59;;;5.14;100.00
53868;BME280;41577;47.470;19.080;2023-04-10T01:04:52;100881.59;;;5.13;100.00
53868;BME280;41577;47.470;19.080;2023-04-10T01:05:07;100887.84;;;5.12;100.00
53868;BME280;41577;47.470;19.080;2023-04-10T01:05:22;100884.25;;;5.13;100.00
53868;BME280;41577;47.470;19.080;2023-04-10T01:05:42;100877.25;;;5.12;100.00
53868;BME280;41577;47.470;19.080;2023-04-10T01:06:03;100876.31;;;5.13;100.00
53868;BME280;41577;47.470;19.080;2023-04-10T01:06:25;100871.41;;;5.09;100.00
53868;BME280;41577;47.470;19.080;2023-04-10T01:06:47;100882.56;;;5.12;100.00
53868;BME280;41577;47.470;19.080;2023-04-10T01:07:10;100878.09;;;5.13;100.00
53868;BME280;41577;47.470;19.080;2023-04-10T01:07:37;100878.09;;;5.13;100.00
53868;BME280;41577;47.470;19.080;2023-04-10T01:08:04;100885.19;;;5.12;100.00
53868;BME280;41577;47.470;19.080;2023-04-10T01:08:42;100880.91;;;5.11;100.00
53868;BME280;41577;47.470;19.080;2023-04-10T01:09:09;100875.59;;;5.11;100.00
53868;BME280;41577;47.470;19.080;2023-04-10T01:09:40;100873.78;;;5.12;100.00
53868;BME280;41577;47.470;19.080;2023-04-10T01:10:14;100867.78;;;5.10;100.00
53868;BME280;41577;47.470;19.080;2023-04-10T01:10:35;100874.75;;;5.11;100.00
53868;BME280;41577;47.470;19.080;2023-04-10T01:11:00;100871.13;;;5.12;100.00
53868;BME280;41577;47.470;19.080;2023-04-10T01:11:23;100875.59;;;5.11;100.00
53868;BME280;41577;47.470;19.080;2023-04-10T01:11:43;100880.03;;;5.11;100.00
53868;BME280;41577;47.470;19.080;2023-04-10T01:12:05;100871.13;;;5.12;100.00
53868;BME280;41577;47.470;19.080;2023-04-10T01:12:40;100877.53;;;5.09;100.00
53868;BME280;41577;47.470;19.080;2023-04-10T01:13:01;100872.94;;;5.11;100.00
53868;BME280;41577;47.470;19.080;2023-04-10T01:13:23;100879.19;;;5.10;100.00
53868;BME280;41577;47.470;19.080;2023-04-10T01:13:52;100880.03;;;5.11;100.00
53868;BME280;41577;47.470;19.080;2023-04-10T01:14:18;100867.78;;;5.10;100.00
53868;BME280;41577;47.470;19.080;2023-04-10T01:14:48;100880.03;;;5.11;100.00
53868;BME280;41577;47.470;19.080;2023-04-10T01:15:06;100881.84;;;5.10;100.00
53868;BME280;41577;47.470;19.080;2023-04-10T01:15:29;100882.69;;;5.11;100.00
53868;BME280;41577;47.470;19.080;2023-04-10T01:15:48;100874.19;;;5.07;100.00
53868;BME280;41577;47.470;19.080;2023-04-10T01:16:08;100873.91;;;5.10;100.00